createdAt,value
2018-06-20T00:01:56.271Z,13.23
2018-06-20T00:05:06.988Z,12.83
2018-06-20T00:08:17.836Z,13.00
2018-06-20T00:11:28.476Z,12.63
2018-06-20T00:14:39.195Z,11.13
2018-06-20T00:17:50.078Z,11.23
2018-06-20T00:21:00.487Z,13.53
2018-06-20T00:24:10.942Z,12.97
2018-06-20T00:27:21.851Z,13.67
2018-06-20T00:30:32.748Z,11.53
2018-06-20T00:33:43.732Z,11.80
2018-06-20T00:36:54.234Z,13.87
2018-06-20T00:40:05.105Z,12.80
2018-06-20T00:43:16.411Z,11.48
2018-06-20T00:46:27.099Z,12.10
2018-06-20T00:49:38.007Z,12.30
2018-06-20T00:52:48.433Z,13.03
2018-06-20T00:56:16.248Z,13.83
2018-06-20T00:59:26.850Z,14.20
2018-06-20T01:02:37.806Z,12.23
2018-06-20T01:05:48.297Z,11.87
2018-06-20T01:08:59.929Z,12.67
2018-06-20T01:12:10.222Z,14.83
2018-06-20T01:15:20.738Z,14.13
2018-06-20T01:18:31.426Z,13.53
2018-06-20T01:21:42.878Z,14.20
2018-06-20T01:24:53.544Z,15.17
2018-06-20T01:28:04.184Z,15.17
2018-06-20T01:31:16.320Z,15.83
2018-06-20T01:34:26.760Z,13.47
2018-06-20T01:37:37.404Z,14.47
2018-06-20T01:40:49.981Z,14.70
2018-06-20T01:44:00.430Z,15.90
2018-06-20T01:47:11.284Z,16.20
2018-06-20T01:50:27.856Z,16.03
2018-06-20T01:53:39.257Z,15.53
2018-06-20T01:56:50.519Z,16.77
2018-06-20T02:00:01.385Z,14.80
2018-06-20T02:03:12.327Z,18.73
2018-06-20T02:06:23.051Z,17.17
2018-06-20T02:09:33.519Z,19.43
2018-06-20T02:12:44.427Z,18.50
2018-06-20T02:15:55.403Z,21.83
2018-06-20T02:19:06.256Z,21.37
2018-06-20T02:22:16.778Z,21.33
2018-06-20T02:25:27.231Z,22.27
2018-06-20T02:28:38.053Z,21.83
2018-06-20T02:31:48.521Z,22.93
2018-06-20T02:34:59.255Z,20.87
2018-06-20T02:38:09.589Z,22.40
2018-06-20T02:41:20.337Z,22.17
2018-06-20T02:44:31.145Z,21.43
2018-06-20T02:47:43.065Z,21.47
2018-06-20T02:50:53.739Z,21.63
2018-06-20T02:54:04.229Z,22.80
2018-06-20T02:57:14.859Z,20.90
2018-06-20T03:00:25.668Z,21.20
2018-06-20T03:03:36.371Z,19.73
2018-06-20T03:06:46.816Z,20.73
2018-06-20T03:09:57.327Z,22.03
2018-06-20T03:13:08.150Z,22.27
2018-06-20T03:16:18.440Z,21.07
2018-06-20T03:19:30.181Z,21.43
2018-06-20T03:22:41.016Z,22.87
2018-06-20T03:25:51.719Z,20.73
2018-06-20T03:29:02.982Z,20.83
2018-06-20T03:32:13.812Z,22.70
2018-06-20T03:35:24.859Z,22.93
2018-06-20T03:38:35.919Z,24.27
2018-06-20T03:41:46.747Z,23.30
2018-06-20T03:44:57.203Z,21.17
2018-06-20T03:48:07.760Z,22.13
2018-06-20T03:51:21.637Z,24.27
2018-06-20T03:54:33.570Z,23.23
2018-06-20T03:57:44.263Z,24.33
2018-06-20T04:00:56.720Z,23.47
2018-06-20T04:04:07.081Z,24.30
2018-06-20T04:07:17.354Z,26.27
2018-06-20T04:10:27.853Z,24.97
2018-06-20T04:13:38.292Z,26.13
2018-06-20T04:16:49.123Z,24.63
2018-06-20T04:19:59.973Z,24.87
2018-06-20T04:23:10.668Z,25.40
2018-06-20T04:26:21.570Z,26.90
2018-06-20T04:29:32.085Z,24.77
2018-06-20T04:32:42.500Z,26.23
2018-06-20T04:35:52.770Z,26.43
2018-06-20T04:39:04.533Z,26.70
2018-06-20T04:42:15.076Z,28.43
2018-06-20T04:45:26.537Z,26.37
2018-06-20T04:48:37.104Z,28.47
2018-06-20T04:51:47.680Z,27.50
2018-06-20T04:54:59.924Z,27.07
2018-06-20T04:58:11.024Z,28.33
2018-06-20T05:01:21.787Z,29.47
2018-06-20T05:04:32.451Z,30.47
2018-06-20T05:07:43.527Z,29.70
2018-06-20T05:10:59.368Z,31.93
2018-06-20T05:14:10.515Z,28.33
2018-06-20T05:17:23.293Z,28.87
2018-06-20T05:20:36.444Z,28.17
2018-06-20T05:23:47.470Z,29.23
2018-06-20T05:26:58.153Z,29.07
2018-06-20T05:30:09.150Z,29.83
2018-06-20T05:33:21.700Z,28.87
2018-06-20T05:36:32.775Z,26.77
2018-06-20T05:39:46.484Z,28.30
2018-06-20T05:42:57.058Z,27.43
2018-06-20T05:46:07.503Z,26.33
2018-06-20T05:49:19.596Z,27.33
2018-06-20T05:52:32.020Z,26.53
2018-06-20T05:55:43.124Z,26.37
2018-06-20T05:58:53.599Z,25.87
2018-06-20T06:02:04.079Z,24.03
2018-06-20T06:05:14.460Z,24.10
2018-06-20T06:08:25.008Z,24.27
2018-06-20T06:11:36.441Z,24.60
2018-06-20T06:14:47.165Z,24.40
2018-06-20T06:17:57.745Z,24.82
2018-06-20T06:21:08.632Z,24.18
2018-06-20T06:24:19.141Z,22.77
2018-06-20T06:27:30.437Z,26.45
2018-06-20T06:30:42.179Z,24.63
2018-06-20T06:33:53.568Z,22.77
2018-06-20T06:37:03.947Z,21.87
2018-06-20T06:40:14.766Z,17.52
2018-06-20T06:43:25.394Z,18.55
2018-06-20T06:46:36.756Z,17.67
2018-06-20T06:49:47.145Z,17.70
2018-06-20T06:52:57.417Z,16.42
2018-06-20T06:56:08.006Z,16.83
2018-06-20T06:59:18.580Z,18.10
2018-06-20T07:02:28.872Z,17.97
2018-06-20T07:05:39.927Z,17.70
2018-06-20T07:08:51.014Z,18.05
2018-06-20T07:12:02.065Z,17.70
2018-06-20T07:15:12.281Z,16.97
2018-06-20T07:18:22.855Z,16.60
2018-06-20T07:21:33.608Z,15.20
2018-06-20T07:24:44.871Z,16.73
2018-06-20T07:27:55.279Z,14.90
2018-06-20T07:31:08.817Z,17.03
2018-06-20T07:34:19.470Z,16.60
2018-06-20T07:37:30.236Z,16.30
2018-06-20T07:40:40.515Z,15.35
2018-06-20T07:43:51.476Z,15.30
2018-06-20T07:47:02.077Z,13.95
2018-06-20T07:50:12.459Z,18.27
2018-06-20T07:53:22.959Z,16.70
2018-06-20T07:56:34.239Z,16.23
2018-06-20T07:59:50.128Z,17.80
2018-06-20T08:03:16.778Z,19.87
2018-06-20T08:06:32.562Z,19.92
2018-06-20T08:09:48.493Z,17.92
2018-06-20T08:13:04.347Z,18.12
2018-06-20T08:16:19.838Z,20.62
2018-06-20T08:19:35.563Z,19.95
2018-06-20T08:22:46.633Z,22.07
2018-06-20T08:25:57.734Z,22.15
2018-06-20T08:29:08.574Z,21.07
2018-06-20T08:32:19.263Z,20.50
2018-06-20T08:35:33.113Z,20.43
2018-06-20T08:38:43.815Z,18.45
2018-06-20T08:41:54.351Z,19.20
2018-06-20T08:45:04.669Z,17.75
2018-06-20T08:48:15.495Z,16.82
2018-06-20T08:51:25.963Z,15.25
2018-06-20T08:54:36.707Z,15.63
2018-06-20T08:57:47.188Z,14.70
2018-06-20T09:01:03.298Z,15.93
2018-06-20T09:04:19.868Z,16.10
2018-06-20T09:07:35.451Z,16.75
2018-06-20T09:10:51.639Z,16.00
2018-06-20T09:14:07.267Z,15.93
2018-06-20T09:17:22.968Z,15.05
2018-06-20T09:20:33.712Z,16.70
2018-06-20T09:23:48.921Z,13.70
2018-06-20T09:26:59.654Z,13.70
2018-06-20T09:30:10.345Z,12.28
2018-06-20T09:33:20.705Z,11.95
2018-06-20T09:36:31.704Z,11.75
2018-06-20T09:39:42.528Z,12.13
2018-06-20T09:42:52.723Z,12.45
2018-06-20T09:46:03.627Z,12.45
2018-06-20T09:49:14.038Z,11.68
2018-06-20T09:52:24.619Z,11.10
2018-06-20T09:55:35.360Z,12.18
2018-06-20T09:58:46.807Z,11.93
2018-06-20T10:02:02.459Z,12.70
2018-06-20T10:05:18.339Z,11.45
2018-06-20T10:08:34.183Z,12.43
2018-06-20T10:11:50.356Z,12.05
2018-06-20T10:15:00.944Z,11.40
2018-06-20T10:18:12.013Z,11.48
2018-06-20T10:21:22.669Z,11.55
2018-06-20T10:24:33.364Z,11.75
2018-06-20T10:27:44.002Z,11.20
2018-06-20T10:30:54.748Z,10.78
2018-06-20T10:34:05.626Z,10.25
2018-06-20T10:37:16.567Z,10.38
2018-06-20T10:40:27.239Z,10.40
2018-06-20T10:43:38.041Z,10.00
2018-06-20T10:46:53.857Z,10.50
2018-06-20T10:50:04.848Z,9.95
2018-06-20T10:53:16.052Z,10.50
2018-06-20T10:56:31.812Z,9.65
2018-06-20T10:59:47.341Z,10.93
2018-06-20T11:03:02.960Z,9.63
2018-06-20T11:06:18.708Z,9.80
2018-06-20T11:09:34.453Z,10.80
2018-06-20T11:13:20.475Z,11.40
2018-06-20T11:16:31.383Z,11.45
2018-06-20T11:19:42.167Z,10.35
2018-06-20T11:22:52.883Z,10.88
2018-06-20T11:26:04.297Z,9.88
2018-06-20T11:29:15.660Z,10.28
2018-06-20T11:32:27.268Z,10.28
2018-06-20T11:35:42.696Z,8.23
2018-06-20T11:38:53.417Z,9.10
2018-06-20T11:42:04.046Z,7.65
2018-06-20T11:45:15.065Z,7.83
2018-06-20T11:48:25.547Z,8.18
2018-06-20T11:51:36.940Z,7.60
2018-06-20T11:54:48.500Z,7.47
2018-06-20T11:58:04.470Z,7.42
2018-06-20T12:01:20.940Z,7.25
2018-06-20T12:04:36.674Z,6.12
2018-06-20T12:07:52.490Z,6.50
2018-06-20T12:11:08.149Z,5.97
2018-06-20T12:14:23.687Z,4.70
2018-06-20T12:17:39.699Z,4.80
2018-06-20T12:20:55.744Z,4.22
2018-06-20T12:24:11.646Z,4.92
2018-06-20T12:27:27.214Z,5.20
2018-06-20T12:30:43.312Z,5.00
2018-06-20T12:33:59.091Z,5.15
2018-06-20T12:37:14.879Z,4.20
2018-06-20T12:40:29.688Z,4.30
2018-06-20T12:43:45.635Z,4.30
2018-06-20T12:47:00.357Z,3.90
2018-06-20T12:50:15.138Z,3.83
2018-06-20T12:53:25.865Z,4.12
2018-06-20T12:56:36.580Z,3.67
2018-06-20T12:59:46.858Z,4.20
2018-06-20T13:02:57.319Z,3.27
2018-06-20T13:06:07.915Z,3.47
2018-06-20T13:09:18.664Z,3.65
2018-06-20T13:12:29.381Z,3.20
2018-06-20T13:15:40.009Z,3.33
2018-06-20T13:19:01.280Z,2.77
2018-06-20T13:22:11.957Z,3.05
2018-06-20T13:25:22.656Z,2.62
2018-06-20T13:28:33.301Z,3.00
2018-06-20T13:31:49.171Z,2.70
2018-06-20T13:35:05.309Z,2.60
2018-06-20T13:38:20.876Z,2.50
2018-06-20T13:41:36.650Z,3.00
2018-06-20T13:44:47.464Z,2.50
2018-06-20T13:48:03.384Z,2.25
2018-06-20T13:51:14.381Z,2.72
2018-06-20T13:54:25.413Z,2.60
2018-06-20T13:57:35.986Z,2.55
2018-06-20T14:00:46.696Z,2.05
2018-06-20T14:03:57.425Z,2.15
2018-06-20T14:07:08.128Z,1.92
2018-06-20T14:10:18.743Z,1.82
2018-06-20T14:13:29.317Z,1.90
2018-06-20T14:16:40.053Z,1.98
2018-06-20T14:19:56.114Z,2.15
2018-06-20T14:23:07.260Z,2.05
2018-06-20T14:26:18.032Z,2.02
2018-06-20T14:29:33.567Z,1.95
2018-06-20T14:32:49.590Z,2.10
2018-06-20T14:36:05.533Z,1.70
2018-06-20T14:39:21.137Z,1.50
2018-06-20T14:42:36.930Z,1.95
2018-06-20T14:45:52.672Z,2.47
2018-06-20T14:49:03.991Z,4.20
2018-06-20T14:52:14.661Z,2.30
2018-06-20T14:55:25.455Z,2.40
2018-06-20T14:58:36.244Z,2.20
2018-06-20T15:01:48.133Z,1.80
2018-06-20T15:04:58.381Z,1.60
2018-06-20T15:08:09.102Z,2.20
2018-06-20T15:11:19.509Z,1.57
2018-06-20T15:14:30.420Z,1.85
2018-06-20T15:17:40.749Z,1.90
2018-06-20T15:20:50.930Z,1.55
2018-06-20T15:24:01.681Z,1.95
2018-06-20T15:27:17.573Z,2.35
2018-06-20T15:30:33.276Z,1.70
2018-06-20T15:33:48.994Z,1.72
2018-06-20T15:37:04.495Z,1.70
2018-06-20T15:40:15.301Z,2.22
2018-06-20T15:43:25.908Z,1.90
2018-06-20T15:46:36.596Z,1.98
2018-06-20T15:49:47.305Z,2.00
2018-06-20T15:52:57.972Z,2.35
2018-06-20T15:56:08.688Z,2.45
2018-06-20T15:59:19.456Z,2.25
2018-06-20T16:02:29.984Z,2.62
2018-06-20T16:05:40.780Z,3.00
2018-06-20T16:08:56.651Z,3.33
2018-06-20T16:12:07.353Z,3.02
2018-06-20T16:15:18.575Z,3.10
2018-06-20T16:18:29.307Z,3.27
2018-06-20T16:21:45.368Z,2.98
2018-06-20T16:25:01.120Z,3.37
2018-06-20T16:28:16.791Z,3.20
2018-06-20T16:31:27.481Z,3.12
2018-06-20T16:34:38.213Z,3.12
2018-06-20T16:37:48.932Z,2.65
2018-06-20T16:40:59.464Z,3.22
2018-06-20T16:44:10.237Z,3.10
2018-06-20T16:47:20.948Z,3.02
2018-06-20T16:50:31.896Z,3.00
2018-06-20T16:53:42.585Z,2.58
2018-06-20T16:56:53.321Z,3.05
2018-06-20T17:00:04.542Z,2.85
2018-06-20T17:03:15.257Z,3.00
2018-06-20T17:06:25.866Z,3.02
2018-06-20T17:09:36.383Z,2.37
2018-06-20T17:12:52.256Z,3.00
2018-06-20T17:16:07.845Z,2.47
2018-06-20T17:19:23.737Z,2.40
2018-06-20T17:22:40.205Z,2.42
2018-06-20T17:25:50.950Z,1.95
2018-06-20T17:29:01.444Z,1.95
2018-06-20T17:32:11.999Z,1.82
2018-06-20T17:35:22.738Z,2.15
2018-06-20T17:38:33.633Z,1.27
2018-06-20T17:41:44.480Z,1.65
2018-06-20T17:44:55.132Z,1.10
2018-06-20T17:48:06.142Z,1.10
2018-06-20T17:51:17.279Z,1.20
2018-06-20T17:54:28.016Z,1.22
2018-06-20T17:57:52.280Z,1.15
2018-06-20T18:01:09.415Z,0.90
2018-06-20T18:04:25.556Z,1.15
2018-06-20T18:07:41.169Z,1.20
2018-06-20T18:10:59.228Z,1.17
2018-06-20T18:14:16.041Z,1.10
2018-06-20T18:17:27.051Z,1.07
2018-06-20T18:20:38.990Z,1.15
2018-06-20T18:23:50.300Z,1.00
2018-06-20T18:27:00.851Z,0.90
2018-06-20T18:30:11.377Z,1.20
2018-06-20T18:33:22.358Z,1.30
2018-06-20T18:36:35.407Z,1.20
2018-06-20T18:39:51.763Z,0.98
2018-06-20T18:43:03.210Z,1.17
2018-06-20T18:46:15.015Z,0.98
2018-06-20T18:49:26.440Z,1.10
2018-06-20T18:52:37.151Z,1.30
2018-06-20T18:55:48.470Z,2.10
2018-06-20T18:59:05.044Z,1.62
2018-06-20T19:02:20.698Z,1.55
2018-06-20T19:05:36.903Z,2.02
2018-06-20T19:08:50.262Z,2.02
2018-06-20T19:12:01.388Z,2.05
2018-06-20T19:15:12.151Z,2.98
2018-06-20T19:18:22.572Z,2.37
2018-06-20T19:21:33.173Z,2.60
2018-06-20T19:24:45.340Z,2.87
2018-06-20T19:27:55.842Z,3.00
2018-06-20T19:31:06.294Z,3.52
2018-06-20T19:34:16.882Z,3.42
2018-06-20T19:37:27.691Z,4.42
2018-06-20T19:40:38.513Z,3.47
2018-06-20T19:43:54.993Z,3.52
2018-06-20T19:47:06.348Z,3.98
2018-06-20T19:50:17.166Z,4.25
2018-06-20T19:53:29.206Z,4.78
2018-06-20T19:56:39.530Z,4.30
2018-06-20T19:59:49.960Z,4.97
2018-06-20T20:03:00.393Z,4.70
2018-06-20T20:06:10.839Z,4.25
2018-06-20T20:09:21.691Z,3.83
2018-06-20T20:12:32.977Z,4.75
2018-06-20T20:15:43.610Z,4.47
2018-06-20T20:18:55.125Z,15.80
2018-06-20T20:22:06.362Z,6.33
2018-06-20T20:25:16.749Z,4.78
2018-06-20T20:28:27.388Z,4.33
2018-06-20T20:31:39.248Z,5.33
2018-06-20T20:34:50.169Z,8.18
2018-06-20T20:38:00.699Z,5.83
2018-06-20T20:41:11.244Z,5.37
2018-06-20T20:44:21.775Z,4.70
2018-06-20T20:47:32.088Z,4.90
2018-06-20T20:50:42.873Z,5.67
2018-06-20T20:53:53.348Z,4.92
2018-06-20T20:57:04.243Z,6.03
2018-06-20T21:00:15.186Z,7.50
2018-06-20T21:03:32.481Z,5.45
2018-06-20T21:06:43.577Z,5.22
2018-06-20T21:09:55.394Z,5.75
2018-06-20T21:13:06.152Z,6.25
2018-06-20T21:16:18.845Z,7.15
2018-06-20T21:19:36.091Z,7.78
2018-06-20T21:22:47.352Z,7.62
2018-06-20T21:25:58.144Z,7.80
2018-06-20T21:29:08.796Z,8.50
2018-06-20T21:32:19.665Z,8.23
2018-06-20T21:35:30.227Z,9.10
2018-06-20T21:38:40.694Z,9.05
2018-06-20T21:41:51.475Z,8.23
2018-06-20T21:45:01.871Z,9.10
2018-06-20T21:48:13.700Z,10.18
2018-06-20T21:51:24.684Z,9.75
2018-06-20T21:54:35.424Z,9.55
2018-06-20T21:57:46.897Z,9.55
2018-06-20T22:00:57.632Z,10.58
2018-06-20T22:04:13.200Z,9.80
2018-06-20T22:07:25.406Z,10.63
2018-06-20T22:10:36.747Z,9.58
2018-06-20T22:13:47.593Z,9.80
2018-06-20T22:16:58.068Z,10.18
2018-06-20T22:20:09.968Z,10.18
2018-06-20T22:23:20.635Z,10.45
2018-06-20T22:26:32.112Z,10.95
2018-06-20T22:29:42.976Z,11.22
2018-06-20T22:32:54.251Z,11.35
2018-06-20T22:36:04.798Z,11.03
2018-06-20T22:39:15.443Z,11.33
2018-06-20T22:42:26.982Z,12.45
2018-06-20T22:45:37.768Z,12.75
2018-06-20T22:48:48.762Z,12.30
2018-06-20T22:51:59.344Z,13.28
2018-06-20T22:55:09.824Z,11.28
2018-06-20T22:58:21.146Z,13.53
2018-06-20T23:01:32.111Z,12.30
2018-06-20T23:04:43.164Z,12.98
2018-06-20T23:07:56.747Z,11.97
2018-06-20T23:11:07.997Z,11.33
2018-06-20T23:14:18.793Z,11.85
2018-06-20T23:17:29.212Z,11.73
2018-06-20T23:20:40.265Z,11.45
2018-06-20T23:23:50.780Z,11.43
2018-06-20T23:27:01.255Z,11.68
2018-06-20T23:30:11.749Z,11.97
2018-06-20T23:33:22.551Z,12.05
2018-06-20T23:36:33.433Z,11.43
2018-06-20T23:39:43.804Z,12.40
2018-06-20T23:42:55.500Z,13.40
2018-06-20T23:46:06.419Z,12.43
2018-06-20T23:49:16.856Z,12.43
2018-06-20T23:52:27.327Z,12.07
2018-06-20T23:55:38.085Z,13.43
2018-06-20T23:58:48.803Z,13.78
